createdAt,value
2023-05-02T00:01:05.509Z,9.17
2023-05-02T00:03:37.834Z,9.40
2023-05-02T00:06:07.434Z,7.78
2023-05-02T00:08:37.102Z,10.77
2023-05-02T00:11:06.803Z,8.13
2023-05-02T00:13:36.408Z,10.70
2023-05-02T00:16:06.023Z,9.10
2023-05-02T00:18:38.210Z,8.63
2023-05-02T00:21:07.805Z,8.77
2023-05-02T00:23:37.510Z,9.47
2023-05-02T00:26:11.736Z,8.57
2023-05-02T00:28:44.873Z,10.97
2023-05-02T00:31:14.497Z,12.17
2023-05-02T00:33:46.728Z,9.67
2023-05-02T00:36:17.206Z,12.50
2023-05-02T00:38:47.496Z,11.87
2023-05-02T00:41:17.036Z,11.23
2023-05-02T00:43:46.529Z,8.90
2023-05-02T00:46:16.521Z,10.07
2023-05-02T00:48:48.571Z,13.27
2023-05-02T00:51:18.461Z,9.82
2023-05-02T00:53:48.649Z,11.17
2023-05-02T00:56:18.159Z,10.50
2023-05-02T00:58:49.553Z,11.37
2023-05-02T01:01:29.277Z,9.77
2023-05-02T01:04:11.706Z,9.83
2023-05-02T01:06:52.972Z,10.27
2023-05-02T01:09:37.135Z,11.10
2023-05-02T01:12:13.049Z,9.00
2023-05-02T01:14:45.711Z,7.90
2023-05-02T01:19:55.472Z,11.30
2023-05-02T01:22:27.195Z,9.00
2023-05-02T01:25:04.966Z,13.15
2023-05-02T01:27:46.288Z,11.60
2023-05-02T01:30:20.743Z,11.50
2023-05-02T01:32:52.864Z,9.83
2023-05-02T01:35:24.176Z,11.93
2023-05-02T01:37:55.837Z,11.83
2023-05-02T01:40:27.280Z,11.00
2023-05-02T01:42:58.313Z,13.77
2023-05-02T01:45:32.001Z,12.53
2023-05-02T01:48:03.538Z,13.77
2023-05-02T01:50:33.825Z,13.87
2023-05-02T01:53:04.837Z,15.60
2023-05-02T01:55:39.309Z,15.83
2023-05-02T01:58:10.302Z,15.23
2023-05-02T02:00:45.400Z,13.80
2023-05-02T02:03:16.951Z,17.50
2023-05-02T02:05:47.508Z,17.40
2023-05-02T02:08:17.095Z,16.60
2023-05-02T02:10:52.638Z,16.07
2023-05-02T02:13:30.491Z,16.50
2023-05-02T02:16:07.200Z,18.57
2023-05-02T02:18:40.843Z,14.73
2023-05-02T02:21:13.941Z,16.93
2023-05-02T02:23:47.918Z,19.37
2023-05-02T02:26:18.287Z,17.23
2023-05-02T02:28:48.365Z,16.80
2023-05-02T02:31:20.455Z,18.33
2023-05-02T02:33:50.406Z,17.77
2023-05-02T02:36:27.341Z,20.63
2023-05-02T02:39:07.585Z,20.20
2023-05-02T02:41:46.041Z,21.17
2023-05-02T02:44:28.701Z,19.70
2023-05-02T02:47:06.234Z,19.42
2023-05-02T02:49:42.413Z,21.47
2023-05-02T02:52:17.677Z,19.07
2023-05-02T02:54:49.889Z,22.63
2023-05-02T02:57:21.784Z,22.67
2023-05-02T02:59:58.330Z,19.02
2023-05-02T03:02:35.351Z,23.23
2023-05-02T03:05:06.227Z,20.33
2023-05-02T03:07:36.972Z,20.97
2023-05-02T03:10:07.484Z,20.57
2023-05-02T03:12:40.024Z,18.50
2023-05-02T03:15:23.421Z,20.98
2023-05-02T03:17:56.633Z,24.57
2023-05-02T03:20:26.224Z,20.70
2023-05-02T03:22:56.232Z,20.77
2023-05-02T03:25:25.728Z,21.40
2023-05-02T03:27:55.982Z,19.87
2023-05-02T03:30:25.563Z,20.03
2023-05-02T03:32:58.359Z,23.57
2023-05-02T03:37:57.397Z,19.53
2023-05-02T03:40:26.967Z,20.97
2023-05-02T03:42:58.266Z,19.37
2023-05-02T03:45:33.153Z,17.67
2023-05-02T03:48:05.611Z,20.37
2023-05-02T03:50:35.244Z,18.95
2023-05-02T03:53:05.065Z,18.60
2023-05-02T03:55:45.810Z,20.13
2023-05-02T03:58:22.488Z,20.63
2023-05-02T04:00:53.639Z,17.83
2023-05-02T04:03:27.276Z,21.27
2023-05-02T04:05:59.023Z,22.73
2023-05-02T04:08:28.858Z,19.03
2023-05-02T04:10:59.027Z,20.43
2023-05-02T04:13:29.475Z,20.93
2023-05-02T04:16:00.424Z,19.80
2023-05-02T04:18:36.279Z,20.43
2023-05-02T04:21:11.039Z,19.27
2023-05-02T04:23:41.637Z,19.97
2023-05-02T04:26:11.870Z,21.33
2023-05-02T04:28:48.521Z,20.03
2023-05-02T04:31:19.129Z,18.30
2023-05-02T04:33:52.599Z,19.23
2023-05-02T04:36:28.438Z,20.23
2023-05-02T04:38:58.210Z,22.20
2023-05-02T04:41:28.320Z,20.47
2023-05-02T04:44:02.474Z,19.87
2023-05-02T04:46:32.633Z,19.13
2023-05-02T04:49:04.770Z,18.73
2023-05-02T04:51:34.666Z,19.98
2023-05-02T04:54:04.270Z,18.77
2023-05-02T04:56:34.403Z,17.43
2023-05-02T04:59:03.902Z,19.20
2023-05-02T05:01:35.505Z,20.17
2023-05-02T05:04:08.941Z,17.83
2023-05-02T05:06:39.332Z,17.80
2023-05-02T05:09:08.977Z,18.10
2023-05-02T05:11:39.834Z,14.40
2023-05-02T05:14:10.018Z,14.50
2023-05-02T05:16:41.795Z,13.87
2023-05-02T05:19:14.778Z,12.57
2023-05-02T05:21:44.467Z,13.53
2023-05-02T05:24:16.236Z,12.83
2023-05-02T05:26:45.921Z,8.77
2023-05-02T05:29:15.786Z,7.90
2023-05-02T05:31:46.587Z,5.93
2023-05-02T05:34:21.278Z,8.43
2023-05-02T05:36:52.515Z,5.23
2023-05-02T05:39:24.108Z,4.97
2023-05-02T05:41:55.613Z,4.97
2023-05-02T05:44:26.408Z,8.20
2023-05-02T05:46:56.337Z,6.30
2023-05-02T05:49:30.706Z,8.35
2023-05-02T05:52:00.384Z,8.63
2023-05-02T05:54:29.913Z,6.93
2023-05-02T05:57:01.149Z,7.27
2023-05-02T05:59:30.667Z,6.77
2023-05-02T06:02:00.494Z,11.97
2023-05-02T06:04:32.683Z,5.13
2023-05-02T06:07:02.529Z,7.60
2023-05-02T06:09:32.583Z,10.57
2023-05-02T06:12:02.320Z,9.37
2023-05-02T06:14:34.048Z,10.75
2023-05-02T06:17:03.624Z,7.47
2023-05-02T06:19:35.988Z,13.20
2023-05-02T06:22:05.877Z,10.50
2023-05-02T06:24:35.361Z,6.90
2023-05-02T06:27:04.818Z,10.17
2023-05-02T06:29:34.271Z,12.80
2023-05-02T06:32:04.456Z,9.30
2023-05-02T06:34:37.372Z,11.27
2023-05-02T06:37:07.112Z,14.23
2023-05-02T06:39:36.926Z,15.73
2023-05-02T06:42:06.543Z,13.20
2023-05-02T06:44:36.968Z,12.67
2023-05-02T06:47:07.658Z,15.20
2023-05-02T06:49:39.862Z,10.60
2023-05-02T06:52:09.450Z,10.98
2023-05-02T06:54:39.679Z,13.83
2023-05-02T06:57:09.217Z,13.03
2023-05-02T06:59:38.643Z,13.03
2023-05-02T07:02:08.108Z,15.40
2023-05-02T07:04:40.149Z,11.27
2023-05-02T07:07:09.804Z,17.30
2023-05-02T07:09:39.321Z,14.30
2023-05-02T07:12:08.836Z,13.73
2023-05-02T07:14:38.467Z,15.43
2023-05-02T07:17:08.097Z,12.57
2023-05-02T07:19:40.275Z,15.43
2023-05-02T07:22:09.900Z,13.38
2023-05-02T07:24:43.381Z,14.23
2023-05-02T07:27:14.064Z,13.80
2023-05-02T07:29:43.679Z,12.47
2023-05-02T07:32:13.266Z,14.03
2023-05-02T07:34:45.359Z,12.80
2023-05-02T07:37:14.842Z,15.38
2023-05-02T07:39:44.443Z,14.43
2023-05-02T07:42:14.117Z,14.77
2023-05-02T07:44:43.664Z,14.13
2023-05-02T07:47:13.200Z,13.03
2023-05-02T07:49:45.232Z,14.87
2023-05-02T07:52:14.839Z,14.98
2023-05-02T07:54:44.393Z,13.27
2023-05-02T07:57:15.162Z,10.73
2023-05-02T07:59:44.721Z,16.47
2023-05-02T08:02:14.436Z,15.47
2023-05-02T08:04:46.963Z,11.53
2023-05-02T08:07:16.983Z,12.90
2023-05-02T08:09:46.504Z,11.03
2023-05-02T08:12:15.975Z,10.83
2023-05-02T08:14:45.576Z,9.60
2023-05-02T08:17:15.074Z,12.17
2023-05-02T08:19:47.205Z,12.03
2023-05-02T08:22:16.785Z,9.45
2023-05-02T08:24:46.390Z,13.70
2023-05-02T08:27:16.119Z,11.23
2023-05-02T08:29:45.984Z,13.30
2023-05-02T08:32:15.664Z,10.20
2023-05-02T08:34:47.832Z,14.80
2023-05-02T08:37:18.584Z,11.45
2023-05-02T08:39:48.105Z,9.23
2023-05-02T08:42:17.636Z,7.30
2023-05-02T08:44:47.249Z,9.03
2023-05-02T08:47:18.767Z,10.13
2023-05-02T08:49:52.831Z,9.87
2023-05-02T08:52:23.881Z,11.80
2023-05-02T08:54:54.654Z,10.00
2023-05-02T08:57:24.242Z,9.83
2023-05-02T08:59:53.927Z,9.23
2023-05-02T09:02:27.893Z,10.27
2023-05-02T09:05:06.899Z,8.00
2023-05-02T09:07:47.676Z,10.47
2023-05-02T09:10:17.285Z,10.57
2023-05-02T09:12:46.862Z,10.50
2023-05-02T09:15:20.064Z,8.83
2023-05-02T09:17:51.267Z,8.30
2023-05-02T09:20:23.330Z,9.80
2023-05-02T09:22:54.223Z,9.43
2023-05-02T09:25:23.700Z,10.73
2023-05-02T09:27:54.851Z,11.47
2023-05-02T09:30:27.055Z,14.23
2023-05-02T09:32:57.131Z,12.43
2023-05-02T09:35:29.354Z,9.50
2023-05-02T09:38:00.304Z,10.32
2023-05-02T09:40:30.800Z,11.93
2023-05-02T09:43:00.382Z,11.73
2023-05-02T09:45:29.956Z,11.57
2023-05-02T09:48:05.042Z,9.00
2023-05-02T09:50:41.768Z,10.63
2023-05-02T09:53:12.636Z,8.67
2023-05-02T09:55:42.680Z,12.80
2023-05-02T09:58:24.306Z,10.90
2023-05-02T10:00:54.434Z,9.00
2023-05-02T10:03:27.670Z,10.67
2023-05-02T10:05:59.783Z,7.07
2023-05-02T10:08:30.397Z,11.68
2023-05-02T10:11:02.118Z,10.87
2023-05-02T10:13:34.698Z,8.35
2023-05-02T10:16:06.337Z,13.35
2023-05-02T10:18:43.783Z,11.50
2023-05-02T10:21:19.422Z,11.40
2023-05-02T10:23:49.639Z,10.37
2023-05-02T10:26:21.419Z,7.60
2023-05-02T10:28:51.108Z,7.87
2023-05-02T10:31:21.771Z,9.27
2023-05-02T10:33:54.025Z,10.77
2023-05-02T10:36:27.136Z,7.95
2023-05-02T10:38:57.751Z,10.97
2023-05-02T10:41:29.772Z,13.47
2023-05-02T10:44:00.713Z,9.70
2023-05-02T10:46:33.808Z,10.90
2023-05-02T10:49:04.359Z,12.10
2023-05-02T10:51:37.753Z,13.20
2023-05-02T10:54:26.117Z,10.90
2023-05-02T10:57:09.752Z,10.13
2023-05-02T10:59:40.795Z,12.53
2023-05-02T11:02:46.542Z,9.10
2023-05-02T11:05:16.338Z,11.00
2023-05-02T11:07:48.467Z,11.23
2023-05-02T11:10:29.020Z,11.32
2023-05-02T11:13:01.354Z,10.13
2023-05-02T11:15:59.014Z,10.90
2023-05-02T11:18:28.518Z,12.50
2023-05-02T11:21:32.960Z,15.30
2023-05-02T11:24:34.798Z,11.33
2023-05-02T11:27:38.102Z,11.83
2023-05-02T11:30:12.908Z,12.98
2023-05-02T11:33:20.402Z,12.43
2023-05-02T11:35:51.237Z,13.33
2023-05-02T11:38:23.305Z,11.93
2023-05-02T11:41:00.702Z,11.38
2023-05-02T11:43:32.427Z,12.00
2023-05-02T11:46:06.126Z,12.40
2023-05-02T11:48:35.990Z,12.27
2023-05-02T11:51:07.476Z,14.87
2023-05-02T11:53:37.085Z,12.53
2023-05-02T11:56:09.058Z,14.23
2023-05-02T11:58:38.540Z,12.25
2023-05-02T12:01:17.975Z,13.20
2023-05-02T12:03:48.714Z,13.50
2023-05-02T12:06:20.338Z,10.87
2023-05-02T12:08:50.640Z,10.00
2023-05-02T12:11:20.176Z,10.40
2023-05-02T12:13:51.288Z,12.90
2023-05-02T12:16:23.567Z,10.80
2023-05-02T12:18:53.316Z,12.07
2023-05-02T12:21:22.926Z,12.50
2023-05-02T12:23:52.653Z,13.27
2023-05-02T12:26:25.482Z,11.20
2023-05-02T12:28:56.920Z,10.27
2023-05-02T12:31:31.535Z,12.07
2023-05-02T12:34:01.803Z,9.73
2023-05-02T12:36:34.007Z,12.37
2023-05-02T12:39:04.812Z,13.77
2023-05-02T12:41:35.375Z,9.60
2023-05-02T12:44:05.860Z,10.73
2023-05-02T12:46:38.068Z,12.80
2023-05-02T12:49:09.873Z,11.68
2023-05-02T12:51:39.933Z,10.77
2023-05-02T12:54:09.650Z,10.40
2023-05-02T12:56:43.844Z,9.80
2023-05-02T12:59:29.168Z,8.40
2023-05-02T13:02:01.341Z,10.37
2023-05-02T13:04:37.594Z,12.85
2023-05-02T13:07:07.080Z,13.00
2023-05-02T13:09:36.589Z,8.83
2023-05-02T13:12:06.860Z,8.07
2023-05-02T13:14:36.400Z,9.07
2023-05-02T13:17:08.912Z,10.60
2023-05-02T13:19:40.504Z,8.10
2023-05-02T13:22:13.969Z,7.60
2023-05-02T13:24:45.058Z,9.57
2023-05-02T13:27:15.435Z,10.27
2023-05-02T13:29:44.856Z,8.20
2023-05-02T13:32:16.913Z,6.10
2023-05-02T13:34:46.388Z,8.65
2023-05-02T13:37:16.105Z,7.03
2023-05-02T13:39:46.116Z,7.40
2023-05-02T13:42:15.645Z,9.07
2023-05-02T13:44:45.329Z,7.97
2023-05-02T13:47:17.356Z,6.60
2023-05-02T13:49:46.919Z,7.40
2023-05-02T13:52:16.395Z,6.00
2023-05-02T13:54:45.913Z,7.73
2023-05-02T13:57:15.338Z,7.33
2023-05-02T13:59:44.830Z,8.00
2023-05-02T14:02:17.048Z,6.00
2023-05-02T14:04:46.512Z,7.15
2023-05-02T14:07:15.980Z,6.10
2023-05-02T14:09:45.455Z,6.87
2023-05-02T14:12:14.941Z,8.30
2023-05-02T14:14:44.398Z,7.00
2023-05-02T14:17:13.960Z,7.17
2023-05-02T14:19:46.023Z,7.70
2023-05-02T14:22:16.046Z,6.30
2023-05-02T14:24:45.809Z,6.87
2023-05-02T14:27:18.407Z,6.87
2023-05-02T14:29:48.202Z,7.90
2023-05-02T14:32:17.771Z,8.13
2023-05-02T14:34:49.947Z,7.50
2023-05-02T14:37:19.961Z,4.70
2023-05-02T14:39:54.873Z,4.97
2023-05-02T14:42:24.759Z,7.87
2023-05-02T14:44:54.452Z,6.77
2023-05-02T14:47:23.955Z,8.37
2023-05-02T14:49:55.977Z,7.83
2023-05-02T14:52:25.519Z,7.15
2023-05-02T14:54:55.060Z,7.87
2023-05-02T14:57:24.530Z,8.10
2023-05-02T14:59:54.106Z,11.90
2023-05-02T15:02:24.482Z,6.83
2023-05-02T15:04:57.593Z,6.20
2023-05-02T15:07:30.108Z,6.73
2023-05-02T15:09:59.992Z,9.93
2023-05-02T15:12:29.799Z,7.50
2023-05-02T15:14:59.342Z,9.13
2023-05-02T15:17:29.106Z,8.07
2023-05-02T15:19:59.099Z,9.00
2023-05-02T15:22:31.145Z,10.87
2023-05-02T15:25:01.257Z,6.05
2023-05-02T15:27:31.963Z,9.03
2023-05-02T15:30:03.122Z,9.83
2023-05-02T15:32:33.229Z,8.50
2023-05-02T15:35:04.418Z,6.13
2023-05-02T15:37:36.454Z,9.37
2023-05-02T15:40:06.906Z,7.68
2023-05-02T15:42:38.569Z,6.73
2023-05-02T15:45:09.818Z,5.13
2023-05-02T15:47:39.694Z,7.77
2023-05-02T15:50:11.125Z,8.50
2023-05-02T15:52:43.181Z,7.13
2023-05-02T15:55:12.824Z,7.95
2023-05-02T15:57:42.260Z,5.93
2023-05-02T16:00:17.018Z,9.33
2023-05-02T16:02:46.710Z,7.83
2023-05-02T16:05:16.277Z,6.87
2023-05-02T16:07:48.420Z,6.27
2023-05-02T16:10:17.848Z,6.40
2023-05-02T16:12:47.280Z,9.57
2023-05-02T16:15:16.809Z,7.13
2023-05-02T16:17:46.343Z,6.63
2023-05-02T16:20:15.849Z,6.27
2023-05-02T16:22:49.517Z,6.80
2023-05-02T16:25:19.831Z,5.10
2023-05-02T16:27:49.332Z,8.47
2023-05-02T16:30:19.144Z,7.53
2023-05-02T16:32:48.761Z,6.30
2023-05-02T16:35:20.019Z,5.03
2023-05-02T16:37:52.257Z,5.60
2023-05-02T16:40:21.788Z,4.88
2023-05-02T16:42:51.546Z,9.00
2023-05-02T16:45:21.090Z,5.43
2023-05-02T16:47:50.673Z,7.23
2023-05-02T16:50:20.285Z,5.10
2023-05-02T16:52:52.396Z,6.03
2023-05-02T16:55:22.125Z,4.47
2023-05-02T16:57:51.549Z,7.07
2023-05-02T17:00:21.817Z,8.43
2023-05-02T17:02:55.190Z,5.77
2023-05-02T17:05:24.797Z,7.37
2023-05-02T17:07:56.884Z,5.63
2023-05-02T17:10:26.578Z,7.18
2023-05-02T17:12:58.515Z,5.67
2023-05-02T17:15:28.126Z,6.28
2023-05-02T17:17:57.590Z,4.77
2023-05-02T17:20:27.158Z,6.07
2023-05-02T17:23:00.526Z,8.43
2023-05-02T17:25:30.073Z,4.47
2023-05-02T17:27:59.612Z,7.07
2023-05-02T17:30:29.533Z,7.23
2023-05-02T17:32:59.126Z,8.83
2023-05-02T17:35:28.772Z,6.43
2023-05-02T17:38:01.091Z,6.33
2023-05-02T17:40:30.779Z,7.53
2023-05-02T17:43:01.730Z,4.93
2023-05-02T17:45:31.669Z,6.73
2023-05-02T17:48:02.811Z,5.80
2023-05-02T17:50:34.077Z,8.52
2023-05-02T17:53:06.766Z,5.93
2023-05-02T17:58:08.392Z,8.77
2023-05-02T18:00:38.245Z,6.63
2023-05-02T18:03:08.343Z,7.73
2023-05-02T18:05:44.416Z,6.27
2023-05-02T18:08:16.825Z,10.70
2023-05-02T18:10:46.338Z,6.88
2023-05-02T18:13:15.873Z,7.50
2023-05-02T18:15:46.026Z,7.80
2023-05-02T18:18:15.670Z,8.27
2023-05-02T18:20:45.177Z,6.00
2023-05-02T18:23:17.281Z,6.90
2023-05-02T18:25:46.990Z,7.47
2023-05-02T18:28:16.479Z,7.50
2023-05-02T18:30:48.279Z,9.97
2023-05-02T18:33:17.892Z,8.43
2023-05-02T18:35:51.185Z,7.27
2023-05-02T18:38:23.227Z,4.40
2023-05-02T18:40:53.308Z,6.20
2023-05-02T18:43:22.880Z,7.63
2023-05-02T18:45:52.406Z,8.67
2023-05-02T18:48:22.327Z,6.27
2023-05-02T18:50:51.796Z,7.47
2023-05-02T18:53:26.429Z,5.43
2023-05-02T18:55:56.514Z,9.00
2023-05-02T18:58:26.932Z,5.57
2023-05-02T19:00:56.485Z,4.90
2023-05-02T19:03:26.966Z,7.27
2023-05-02T19:05:57.042Z,8.70
2023-05-02T19:08:29.122Z,10.07
2023-05-02T19:10:58.782Z,9.20
2023-05-02T19:13:28.488Z,7.20
2023-05-02T19:16:01.556Z,8.83
2023-05-02T19:18:31.260Z,7.03
2023-05-02T19:21:03.925Z,7.10
2023-05-02T19:26:06.037Z,7.83
2023-05-02T19:28:36.055Z,9.93
2023-05-02T19:31:10.694Z,7.70
2023-05-02T19:33:40.606Z,7.70
2023-05-02T19:36:10.704Z,7.80
2023-05-02T19:38:43.888Z,7.80
2023-05-02T19:41:15.411Z,7.53
2023-05-02T19:43:45.002Z,4.70
2023-05-02T19:46:14.754Z,8.33
2023-05-02T19:48:44.501Z,7.70
2023-05-02T19:51:14.072Z,7.53
2023-05-02T19:53:46.252Z,6.17
2023-05-02T19:56:15.765Z,7.53
2023-05-02T19:58:45.363Z,9.47
2023-05-02T20:01:15.004Z,7.50
2023-05-02T20:03:44.638Z,8.70
2023-05-02T20:06:14.656Z,5.97
2023-05-02T20:08:46.838Z,6.93
2023-05-02T20:11:16.551Z,6.10
2023-05-02T20:13:46.182Z,7.53
2023-05-02T20:16:16.243Z,7.60
2023-05-02T20:18:46.064Z,6.50
2023-05-02T20:21:16.540Z,5.03
2023-05-02T20:23:48.688Z,5.47
2023-05-02T20:26:18.769Z,7.30
2023-05-02T20:28:48.247Z,5.30
2023-05-02T20:31:17.741Z,5.33
2023-05-02T20:33:48.299Z,6.93
2023-05-02T20:36:18.298Z,5.27
2023-05-02T20:38:52.158Z,7.53
2023-05-02T20:41:24.026Z,7.60
2023-05-02T20:43:54.623Z,4.30
2023-05-02T20:46:24.223Z,8.53
2023-05-02T20:48:54.477Z,10.40
2023-05-02T20:51:24.032Z,4.40
2023-05-02T20:53:56.162Z,6.17
2023-05-02T20:56:26.284Z,7.10
2023-05-02T20:58:55.875Z,4.93
2023-05-02T21:01:25.401Z,8.00
2023-05-02T21:03:57.251Z,7.80
2023-05-02T21:06:27.085Z,5.45
2023-05-02T21:08:59.363Z,5.70
2023-05-02T21:11:28.903Z,7.88
2023-05-02T21:13:58.450Z,5.27
2023-05-02T21:16:28.146Z,8.60
2023-05-02T21:18:57.695Z,6.00
2023-05-02T21:21:27.277Z,7.47
2023-05-02T21:23:59.873Z,7.67
2023-05-02T21:26:30.476Z,4.43
2023-05-02T21:29:00.318Z,2.43
2023-05-02T21:31:30.050Z,5.00
2023-05-02T21:33:59.554Z,6.30
2023-05-02T21:36:29.102Z,6.60
2023-05-02T21:39:01.278Z,9.33
2023-05-02T21:41:31.142Z,6.45
2023-05-02T21:44:00.653Z,6.63
2023-05-02T21:46:30.190Z,5.90
2023-05-02T21:48:59.705Z,5.17
2023-05-02T21:51:29.215Z,4.40
2023-05-02T21:54:01.274Z,7.53
2023-05-02T21:56:30.780Z,6.43
2023-05-02T21:59:00.300Z,5.47
2023-05-02T22:01:29.861Z,8.00
2023-05-02T22:03:59.686Z,5.57
2023-05-02T22:06:29.488Z,3.40
2023-05-02T22:09:01.555Z,6.10
2023-05-02T22:11:31.602Z,10.10
2023-05-02T22:14:01.045Z,6.47
2023-05-02T22:16:30.972Z,6.33
2023-05-02T22:19:01.429Z,5.93
2023-05-02T22:21:31.789Z,5.83
2023-05-02T22:24:04.168Z,6.03
2023-05-02T22:26:33.649Z,6.22
2023-05-02T22:29:03.134Z,7.40
2023-05-02T22:31:32.680Z,5.50
2023-05-02T22:34:02.255Z,6.13
2023-05-02T22:36:31.687Z,10.20
2023-05-02T22:39:05.624Z,8.47
2023-05-02T22:41:35.216Z,5.87
2023-05-02T22:44:04.701Z,4.20
2023-05-02T22:46:34.267Z,4.50
2023-05-02T22:49:03.740Z,5.80
2023-05-02T22:51:33.319Z,7.63
2023-05-02T22:54:06.231Z,9.23
2023-05-02T22:56:35.705Z,5.90
2023-05-02T22:59:05.231Z,8.83
2023-05-02T23:01:34.748Z,7.03
2023-05-02T23:04:04.483Z,6.50
2023-05-02T23:06:34.216Z,5.43
2023-05-02T23:09:07.165Z,9.40
2023-05-02T23:11:37.010Z,7.03
2023-05-02T23:14:07.073Z,5.73
2023-05-02T23:16:36.685Z,6.07
2023-05-02T23:19:06.262Z,7.23
2023-05-02T23:21:35.731Z,6.10
2023-05-02T23:24:08.161Z,6.80
2023-05-02T23:26:37.648Z,8.05
2023-05-02T23:29:07.344Z,5.90
2023-05-02T23:31:36.915Z,5.60
2023-05-02T23:34:07.262Z,7.43
2023-05-02T23:36:37.188Z,6.83
2023-05-02T23:39:09.369Z,7.43
2023-05-02T23:41:38.900Z,9.20
2023-05-02T23:44:08.545Z,7.40
2023-05-02T23:46:38.071Z,7.27
2023-05-02T23:49:07.604Z,6.43
2023-05-02T23:51:37.851Z,5.40
2023-05-02T23:54:10.064Z,6.23
2023-05-02T23:56:39.509Z,4.95
2023-05-02T23:59:09.002Z,10.47
